Time;durP1;ratioP1;P1;durP2;ratioP2;P2;SDS_P1;SDS_P2;PMS_P1;PMS_P2;Temp;Humidity;BMP_temperature;BMP_pressure;BME280_temperature;BME280_humidity;BME280_pressure;Samples;Min_cycle;Max_cycle;Signal;HPM_P1;HPM_P2
2022/06/21 00:00:28;;;;;;;3.65;2.35;;;15.80;99.90;;;;;;5084416;28;20196;-72
2022/06/21 00:03:03;;;;;;;5.53;2.58;;;15.80;99.90;;;;;;5071338;28;20181;-73
2022/06/21 00:05:34;;;;;;;3.28;2.30;;;15.80;99.90;;;;;;5065617;28;20281;-72
2022/06/21 00:08:06;;;;;;;4.57;2.35;;;15.80;99.90;;;;;;5065703;28;20220;-71
2022/06/21 00:10:35;;;;;;;4.07;2.17;;;15.80;99.90;;;;;;5072301;28;20245;-72
2022/06/21 00:13:09;;;;;;;4.00;1.88;;;15.80;99.90;;;;;;5070091;28;20201;-72
2022/06/21 00:15:34;;;;;;;3.47;2.30;;;15.80;99.90;;;;;;5071153;28;20184;-71
2022/06/21 00:18:03;;;;;;;6.38;3.00;;;15.70;99.90;;;;;;5073498;28;20255;-77
2022/06/21 00:20:30;;;;;;;2.85;2.30;;;15.70;99.90;;;;;;5065978;28;20197;-78
2022/06/21 00:22:56;;;;;;;3.38;2.35;;;15.70;99.90;;;;;;5067467;28;20173;-74
2022/06/21 00:25:26;;;;;;;3.50;2.45;;;15.60;99.90;;;;;;5069467;28;20203;-74
2022/06/21 00:27:54;;;;;;;3.55;2.47;;;15.60;99.90;;;;;;5072456;28;20204;-76
2022/06/21 00:30:20;;;;;;;3.78;2.47;;;15.60;99.90;;;;;;5085312;28;20176;-77
2022/06/21 00:32:52;;;;;;;4.00;2.38;;;15.50;99.90;;;;;;5085833;28;20181;-77
2022/06/21 00:35:20;;;;;;;3.45;2.85;;;15.40;99.90;;;;;;5075333;28;20205;-79
2022/06/21 00:37:47;;;;;;;3.85;2.42;;;15.40;99.90;;;;;;5075157;28;20177;-75
2022/06/21 00:40:20;;;;;;;7.05;2.40;;;15.30;99.90;;;;;;5072028;28;20235;-78
2022/06/21 00:42:53;;;;;;;3.38;2.40;;;15.20;99.90;;;;;;5073758;28;20184;-77
2022/06/21 00:45:24;;;;;;;2.33;2.13;;;15.20;99.90;;;;;;5074192;28;20235;-78
2022/06/21 00:47:57;;;;;;;3.33;2.00;;;15.10;99.90;;;;;;5076069;28;20219;-77
2022/06/21 00:50:26;;;;;;;3.72;2.38;;;15.10;99.90;;;;;;5075497;28;20192;-76
2022/06/21 00:53:06;;;;;;;3.80;2.90;;;15.00;99.90;;;;;;5077957;28;20179;-80
2022/06/21 00:55:47;;;;;;;4.75;2.80;;;15.00;99.90;;;;;;5076680;28;20180;-76
2022/06/21 00:58:18;;;;;;;3.20;2.63;;;14.90;99.90;;;;;;5067916;28;20176;-78
2022/06/21 01:01:09;;;;;;;4.35;2.63;;;14.90;99.90;;;;;;5074583;28;20209;-78
2022/06/21 01:04:11;;;;;;;4.45;3.10;;;14.90;99.90;;;;;;5066672;28;20185;-78
2022/06/21 01:06:44;;;;;;;7.00;4.00;;;14.90;99.90;;;;;;5073145;28;20200;-78
2022/06/21 01:09:44;;;;;;;7.50;4.13;;;14.80;99.90;;;;;;5072671;28;20164;-78
2022/06/21 01:12:17;;;;;;;7.95;3.85;;;14.80;99.90;;;;;;5035683;28;20177;-77
2022/06/21 01:14:48;;;;;;;5.38;3.63;;;14.80;99.90;;;;;;5076192;28;20678;-78
2022/06/21 01:17:15;;;;;;;6.20;4.60;;;14.70;99.90;;;;;;5069470;28;20191;-76
2022/06/21 01:19:48;;;;;;;7.00;4.60;;;14.70;99.90;;;;;;5062886;28;20268;-78
2022/06/21 01:22:39;;;;;;;7.43;4.68;;;14.70;99.90;;;;;;5075390;28;20197;-77
2022/06/21 01:25:10;;;;;;;5.70;4.32;;;14.60;99.90;;;;;;5069273;28;20197;-77
2022/06/21 01:27:39;;;;;;;6.50;4.35;;;14.60;99.90;;;;;;5060426;28;20222;-77
2022/06/21 01:30:07;;;;;;;5.20;4.15;;;14.60;99.90;;;;;;5077294;28;20195;-75
2022/06/21 01:32:36;;;;;;;5.55;4.25;;;14.50;99.90;;;;;;5068323;28;20191;-77
2022/06/21 01:35:09;;;;;;;6.40;4.65;;;14.50;99.90;;;;;;5074159;28;20172;-78
2022/06/21 01:37:38;;;;;;;8.85;5.07;;;14.50;99.90;;;;;;5071920;28;20181;-78
2022/06/21 01:40:07;;;;;;;9.15;4.35;;;14.40;99.90;;;;;;5085154;28;20227;-76
2022/06/21 01:42:46;;;;;;;5.35;3.90;;;14.40;99.90;;;;;;5074426;28;20208;-77
2022/06/21 01:45:16;;;;;;;5.40;4.03;;;14.30;99.90;;;;;;5071046;28;20196;-79
2022/06/21 01:47:58;;;;;;;7.03;3.97;;;14.30;99.90;;;;;;5067099;28;20172;-77
2022/06/21 01:50:26;;;;;;;5.05;4.22;;;14.30;99.90;;;;;;5078158;28;20209;-77
2022/06/21 01:52:55;;;;;;;5.55;4.32;;;14.20;99.90;;;;;;5086673;28;20187;-75
2022/06/21 01:55:30;;;;;;;6.35;4.15;;;14.20;99.90;;;;;;5064208;28;20181;-79
2022/06/21 01:57:58;;;;;;;6.50;4.28;;;14.10;99.90;;;;;;5064808;28;20189;-78
2022/06/21 02:00:24;;;;;;;10.68;5.13;;;14.10;99.90;;;;;;5071366;28;20188;-78
2022/06/21 02:02:56;;;;;;;7.90;4.45;;;14.10;99.90;;;;;;5074195;28;20273;-77
2022/06/21 02:05:28;;;;;;;5.90;4.63;;;14.10;99.90;;;;;;5072871;28;20192;-79
2022/06/21 02:08:01;;;;;;;6.30;4.70;;;14.10;99.90;;;;;;5070201;28;20169;-75
2022/06/21 02:10:46;;;;;;;6.88;4.63;;;14.10;99.90;;;;;;5066756;28;20251;-78
2022/06/21 02:13:21;;;;;;;6.10;4.13;;;14.10;99.90;;;;;;5066461;28;20280;-74
2022/06/21 02:15:52;;;;;;;6.22;4.05;;;14.00;99.90;;;;;;5080421;28;20257;-79
2022/06/21 02:18:20;;;;;;;4.10;3.67;;;14.10;99.90;;;;;;5079089;28;20188;-78
2022/06/21 02:20:53;;;;;;;6.18;4.10;;;14.00;99.90;;;;;;5072071;28;20208;-80
2022/06/21 02:23:23;;;;;;;5.78;3.28;;;14.00;99.90;;;;;;5068727;28;20196;-77
2022/06/21 02:25:56;;;;;;;6.00;3.58;;;14.00;99.90;;;;;;5070301;28;20284;-78
2022/06/21 02:28:28;;;;;;;7.25;3.67;;;14.00;99.90;;;;;;5065012;28;20179;-77
2022/06/21 02:30:58;;;;;;;4.68;3.35;;;14.00;99.90;;;;;;5070499;28;20203;-79
2022/06/21 02:33:28;;;;;;;7.10;3.83;;;14.00;99.90;;;;;;5066688;28;20177;-75
2022/06/21 02:36:00;;;;;;;5.50;3.63;;;13.90;99.90;;;;;;5070153;28;20231;-76
2022/06/21 02:38:34;;;;;;;5.30;3.33;;;13.90;99.90;;;;;;5069361;28;20180;-78
2022/06/21 02:41:30;;;;;;;5.60;3.17;;;13.90;99.90;;;;;;5068370;28;20215;-78
2022/06/21 02:44:09;;;;;;;5.60;3.30;;;13.90;99.90;;;;;;5073462;28;20201;-78
2022/06/21 02:46:38;;;;;;;4.35;3.10;;;13.80;99.90;;;;;;5069612;28;20283;-77
2022/06/21 02:49:12;;;;;;;5.10;3.42;;;13.80;99.90;;;;;;5066514;28;20177;-81
